sensor_id;sensor_type;location;lat;lon;timestamp;pressure;altitude;pressure_sealevel;temperature;humidity
47983;BME280;33751;50.816;-1.214;2024-03-23T00:54:45;101609.90;;;25.30;100.00
47983;BME280;33751;50.816;-1.214;2024-03-23T00:57:12;101606.62;;;24.76;100.00
47983;BME280;33751;50.816;-1.214;2024-03-23T00:59:38;101603.81;;;24.89;100.00
47983;BME280;33751;50.816;-1.214;2024-03-23T01:02:05;101601.17;;;24.60;100.00
47983;BME280;33751;50.816;-1.214;2024-03-23T01:04:31;101595.98;;;25.09;100.00
47983;BME280;33751;50.816;-1.214;2024-03-23T01:06:59;101591.99;;;24.89;100.00
47983;BME280;33751;50.816;-1.214;2024-03-23T01:09:25;101588.84;;;24.85;100.00
47983;BME280;33751;50.816;-1.214;2024-03-23T01:11:52;101593.63;;;24.86;100.00
47983;BME280;33751;50.816;-1.214;2024-03-23T01:14:18;101591.16;;;25.05;100.00
47983;BME280;33751;50.816;-1.214;2024-03-23T01:16:45;101589.71;;;25.04;100.00
47983;BME280;33751;50.816;-1.214;2024-03-23T01:19:11;101590.67;;;25.01;100.00
47983;BME280;33751;50.816;-1.214;2024-03-23T01:21:38;101589.95;;;25.00;100.00
47983;BME280;33751;50.816;-1.214;2024-03-23T01:24:05;101589.02;;;24.49;100.00
47983;BME280;33751;50.816;-1.214;2024-03-23T01:26:32;101585.38;;;24.94;100.00
47983;BME280;33751;50.816;-1.214;2024-03-23T01:28:58;101585.38;;;24.64;100.00
47983;BME280;33751;50.816;-1.214;2024-03-23T01:31:25;101584.50;;;24.88;100.00
47983;BME280;33751;50.816;-1.214;2024-03-23T01:33:51;101582.66;;;24.83;100.00
47983;BME280;33751;50.816;-1.214;2024-03-23T01:36:18;101580.75;;;24.82;100.00
47983;BME280;33751;50.816;-1.214;2024-03-23T01:38:45;101578.49;;;24.80;100.00
47983;BME280;33751;50.816;-1.214;2024-03-23T01:41:11;101577.87;;;24.74;100.00
47983;BME280;33751;50.816;-1.214;2024-03-23T01:43:38;101575.20;;;24.53;100.00
47983;BME280;33751;50.816;-1.214;2024-03-23T01:46:04;101576.40;;;24.49;100.00
47983;BME280;33751;50.816;-1.214;2024-03-23T01:48:31;101582.73;;;24.72;100.00
47983;BME280;33751;50.816;-1.214;2024-03-23T01:50:58;101575.57;;;24.68;100.00
47983;BME280;33751;50.816;-1.214;2024-03-23T01:53:25;101573.63;;;24.64;100.00
47983;BME280;33751;50.816;-1.214;2024-03-23T01:55:52;101572.14;;;24.43;100.00
47983;BME280;33751;50.816;-1.214;2024-03-23T01:58:20;101577.13;;;24.72;100.00
47983;BME280;33751;50.816;-1.214;2024-03-23T02:00:47;101577.11;;;24.54;100.00
47983;BME280;33751;50.816;-1.214;2024-03-23T02:03:22;101575.08;;;24.63;100.00
47983;BME280;33751;50.816;-1.214;2024-03-23T02:05:49;101575.50;;;24.58;100.00
47983;BME280;33751;50.816;-1.214;2024-03-23T02:08:17;101579.59;;;24.52;100.00
47983;BME280;33751;50.816;-1.214;2024-03-23T02:10:44;101578.74;;;24.53;100.00
47983;BME280;33751;50.816;-1.214;2024-03-23T02:13:11;101579.68;;;24.61;100.00
47983;BME280;33751;50.816;-1.214;2024-03-23T02:15:39;101581.09;;;24.41;100.00
47983;BME280;33751;50.816;-1.214;2024-03-23T02:18:07;101579.91;;;24.18;100.00
47983;BME280;33751;50.816;-1.214;2024-03-23T02:20:34;101582.11;;;24.49;100.00
47983;BME280;33751;50.816;-1.214;2024-03-23T02:23:02;101585.49;;;24.88;100.00
47983;BME280;33751;50.816;-1.214;2024-03-23T02:25:29;101585.30;;;24.48;100.00
47983;BME280;33751;50.816;-1.214;2024-03-23T02:27:55;101584.74;;;24.52;100.00
47983;BME280;33751;50.816;-1.214;2024-03-23T02:30:22;101582.45;;;24.55;100.00
47983;BME280;33751;50.816;-1.214;2024-03-23T02:32:48;101581.00;;;24.59;100.00
47983;BME280;33751;50.816;-1.214;2024-03-23T02:35:15;101574.73;;;24.82;100.00
47983;BME280;33751;50.816;-1.214;2024-03-23T02:37:41;101576.08;;;24.51;100.00
47983;BME280;33751;50.816;-1.214;2024-03-23T02:40:08;101572.96;;;24.55;100.00
47983;BME280;33751;50.816;-1.214;2024-03-23T02:42:35;101579.42;;;24.47;100.00
47983;BME280;33751;50.816;-1.214;2024-03-23T02:45:02;101580.73;;;24.37;100.00
47983;BME280;33751;50.816;-1.214;2024-03-23T02:47:29;101576.76;;;24.21;100.00
47983;BME280;33751;50.816;-1.214;2024-03-23T02:49:55;101575.83;;;24.34;100.00
47983;BME280;33751;50.816;-1.214;2024-03-23T02:52:22;101580.82;;;24.63;100.00
47983;BME280;33751;50.816;-1.214;2024-03-23T02:54:48;101580.01;;;24.27;100.00
47983;BME280;33751;50.816;-1.214;2024-03-23T02:57:15;101578.94;;;24.25;100.00
47983;BME280;33751;50.816;-1.214;2024-03-23T02:59:41;101579.12;;;24.36;100.00
47983;BME280;33751;50.816;-1.214;2024-03-23T03:02:08;101573.92;;;24.20;100.00
47983;BME280;33751;50.816;-1.214;2024-03-23T03:04:35;101574.88;;;24.23;100.00
47983;BME280;33751;50.816;-1.214;2024-03-23T03:07:01;101575.14;;;24.18;100.00
47983;BME280;33751;50.816;-1.214;2024-03-23T03:09:27;101572.15;;;24.23;100.00
47983;BME280;33751;50.816;-1.214;2024-03-23T03:11:54;101574.87;;;24.21;100.00
47983;BME280;33751;50.816;-1.214;2024-03-23T03:14:21;101573.58;;;24.10;100.00
47983;BME280;33751;50.816;-1.214;2024-03-23T03:16:47;101578.71;;;24.48;100.00
47983;BME280;33751;50.816;-1.214;2024-03-23T03:19:14;101577.59;;;23.94;100.00
47983;BME280;33751;50.816;-1.214;2024-03-23T03:21:40;101579.54;;;23.95;100.00
47983;BME280;33751;50.816;-1.214;2024-03-23T03:24:07;101581.00;;;24.18;100.00
47983;BME280;33751;50.816;-1.214;2024-03-23T03:26:34;101580.16;;;24.29;100.00
47983;BME280;33751;50.816;-1.214;2024-03-23T03:29:01;101580.76;;;23.83;100.00
47983;BME280;33751;50.816;-1.214;2024-03-23T03:31:29;101577.71;;;24.14;100.00
47983;BME280;33751;50.816;-1.214;2024-03-23T03:33:56;101573.32;;;23.89;100.00
47983;BME280;33751;50.816;-1.214;2024-03-23T03:36:23;101568.33;;;23.96;100.00
47983;BME280;33751;50.816;-1.214;2024-03-23T03:38:49;101566.62;;;24.39;100.00
47983;BME280;33751;50.816;-1.214;2024-03-23T03:41:16;101565.14;;;24.28;100.00
47983;BME280;33751;50.816;-1.214;2024-03-23T03:43:42;101564.63;;;24.04;100.00
47983;BME280;33751;50.816;-1.214;2024-03-23T03:46:09;101568.01;;;24.18;100.00
47983;BME280;33751;50.816;-1.214;2024-03-23T03:48:36;101569.12;;;23.99;100.00
47983;BME280;33751;50.816;-1.214;2024-03-23T03:51:04;101568.72;;;24.09;100.00
47983;BME280;33751;50.816;-1.214;2024-03-23T03:53:31;101569.89;;;24.04;100.00
47983;BME280;33751;50.816;-1.214;2024-03-23T03:56:01;101573.63;;;23.95;100.00
47983;BME280;33751;50.816;-1.214;2024-03-23T03:58:28;101562.96;;;24.03;100.00
47983;BME280;33751;50.816;-1.214;2024-03-23T04:00:55;101563.61;;;23.60;100.00
47983;BME280;33751;50.816;-1.214;2024-03-23T04:03:22;101567.61;;;24.08;100.00
47983;BME280;33751;50.816;-1.214;2024-03-23T04:05:51;101570.38;;;24.08;100.00
47983;BME280;33751;50.816;-1.214;2024-03-23T04:08:19;101567.28;;;23.99;100.00
47983;BME280;33751;50.816;-1.214;2024-03-23T04:10:46;101565.90;;;24.05;100.00
47983;BME280;33751;50.816;-1.214;2024-03-23T04:13:14;101568.38;;;23.92;100.00
47983;BME280;33751;50.816;-1.214;2024-03-23T04:15:40;101565.24;;;23.47;100.00
47983;BME280;33751;50.816;-1.214;2024-03-23T04:18:07;101568.48;;;23.41;100.00
47983;BME280;33751;50.816;-1.214;2024-03-23T04:20:34;101567.45;;;23.60;100.00
47983;BME280;33751;50.816;-1.214;2024-03-23T04:23:01;101568.71;;;23.32;100.00
47983;BME280;33751;50.816;-1.214;2024-03-23T04:25:27;101569.07;;;23.84;100.00
47983;BME280;33751;50.816;-1.214;2024-03-23T04:27:54;101570.38;;;23.79;100.00
47983;BME280;33751;50.816;-1.214;2024-03-23T04:30:20;101573.63;;;23.70;100.00
47983;BME280;33751;50.816;-1.214;2024-03-23T04:32:47;101573.23;;;23.65;100.00
47983;BME280;33751;50.816;-1.214;2024-03-23T04:35:13;101572.37;;;23.72;100.00
47983;BME280;33751;50.816;-1.214;2024-03-23T04:37:40;101572.48;;;23.84;100.00
47983;BME280;33751;50.816;-1.214;2024-03-23T04:40:07;101568.80;;;23.22;100.00
47983;BME280;33751;50.816;-1.214;2024-03-23T04:42:34;101568.03;;;23.68;100.00
47983;BME280;33751;50.816;-1.214;2024-03-23T04:45:00;101565.29;;;23.54;100.00
47983;BME280;33751;50.816;-1.214;2024-03-23T04:47:28;101564.84;;;23.84;100.00
47983;BME280;33751;50.816;-1.214;2024-03-23T04:49:55;101560.46;;;23.77;100.00
47983;BME280;33751;50.816;-1.214;2024-03-23T04:52:22;101558.75;;;23.50;100.00
47983;BME280;33751;50.816;-1.214;2024-03-23T04:54:49;101557.12;;;23.54;100.00
47983;BME280;33751;50.816;-1.214;2024-03-23T04:57:16;101559.89;;;23.47;100.00
47983;BME280;33751;50.816;-1.214;2024-03-23T04:59:42;101560.57;;;23.46;100.00
47983;BME280;33751;50.816;-1.214;2024-03-23T05:02:09;101562.59;;;23.58;100.00
47983;BME280;33751;50.816;-1.214;2024-03-23T05:04:35;101562.84;;;23.52;100.00
47983;BME280;33751;50.816;-1.214;2024-03-23T05:07:04;101563.90;;;23.46;100.00
47983;BME280;33751;50.816;-1.214;2024-03-23T05:09:31;101561.69;;;23.44;100.00
47983;BME280;33751;50.816;-1.214;2024-03-23T05:11:57;101566.74;;;23.22;100.00
47983;BME280;33751;50.816;-1.214;2024-03-23T05:14:24;101562.84;;;23.37;100.00
47983;BME280;33751;50.816;-1.214;2024-03-23T05:16:50;101554.60;;;23.26;100.00
47983;BME280;33751;50.816;-1.214;2024-03-23T05:19:17;101554.22;;;23.26;100.00
47983;BME280;33751;50.816;-1.214;2024-03-23T05:21:44;101558.55;;;23.21;100.00
47983;BME280;33751;50.816;-1.214;2024-03-23T05:24:11;101555.05;;;23.38;100.00
47983;BME280;33751;50.816;-1.214;2024-03-23T05:26:38;101552.67;;;23.37;100.00
47983;BME280;33751;50.816;-1.214;2024-03-23T05:29:05;101547.84;;;23.19;100.00
47983;BME280;33751;50.816;-1.214;2024-03-23T05:31:31;101547.73;;;23.27;100.00
47983;BME280;33751;50.816;-1.214;2024-03-23T05:33:58;101545.63;;;23.36;100.00
47983;BME280;33751;50.816;-1.214;2024-03-23T05:36:24;101542.78;;;23.23;100.00
47983;BME280;33751;50.816;-1.214;2024-03-23T05:38:51;101534.92;;;23.44;100.00
47983;BME280;33751;50.816;-1.214;2024-03-23T05:41:18;101533.30;;;23.43;100.00
47983;BME280;33751;50.816;-1.214;2024-03-23T05:43:45;101529.93;;;23.37;100.00
47983;BME280;33751;50.816;-1.214;2024-03-23T05:46:12;101527.01;;;23.22;100.00
47983;BME280;33751;50.816;-1.214;2024-03-23T05:48:38;101529.98;;;23.24;100.00
47983;BME280;33751;50.816;-1.214;2024-03-23T05:51:05;101528.24;;;23.15;100.00
47983;BME280;33751;50.816;-1.214;2024-03-23T05:53:32;101530.12;;;23.37;100.00
47983;BME280;33751;50.816;-1.214;2024-03-23T05:56:01;101527.89;;;23.17;100.00
47983;BME280;33751;50.816;-1.214;2024-03-23T05:58:28;101530.10;;;23.19;100.00
47983;BME280;33751;50.816;-1.214;2024-03-23T06:00:57;101531.58;;;23.66;100.00
47983;BME280;33751;50.816;-1.214;2024-03-23T06:03:24;101529.18;;;23.69;100.00
47983;BME280;33751;50.816;-1.214;2024-03-23T06:05:51;101529.33;;;23.41;100.00
47983;BME280;33751;50.816;-1.214;2024-03-23T06:08:18;101537.52;;;23.25;100.00
47983;BME280;33751;50.816;-1.214;2024-03-23T06:10:46;101540.88;;;23.35;100.00
47983;BME280;33751;50.816;-1.214;2024-03-23T06:13:12;101542.94;;;23.41;100.00
47983;BME280;33751;50.816;-1.214;2024-03-23T06:15:39;101546.44;;;23.75;100.00
47983;BME280;33751;50.816;-1.214;2024-03-23T06:18:06;101548.03;;;23.71;100.00
47983;BME280;33751;50.816;-1.214;2024-03-23T06:20:33;101545.23;;;23.95;100.00
47983;BME280;33751;50.816;-1.214;2024-03-23T06:23:00;101538.83;;;24.22;99.26
47983;BME280;33751;50.816;-1.214;2024-03-23T06:25:27;101540.88;;;24.05;98.07
47983;BME280;33751;50.816;-1.214;2024-03-23T06:27:54;101540.46;;;24.40;96.72
47983;BME280;33751;50.816;-1.214;2024-03-23T06:30:21;101543.48;;;24.66;95.70
47983;BME280;33751;50.816;-1.214;2024-03-23T06:32:48;101541.86;;;24.95;94.46
47983;BME280;33751;50.816;-1.214;2024-03-23T06:35:15;101537.18;;;24.90;93.83
47983;BME280;33751;50.816;-1.214;2024-03-23T06:37:41;101537.22;;;24.83;94.25
47983;BME280;33751;50.816;-1.214;2024-03-23T06:40:08;101535.36;;;25.35;93.59
47983;BME280;33751;50.816;-1.214;2024-03-23T06:42:35;101538.31;;;25.29;92.45
47983;BME280;33751;50.816;-1.214;2024-03-23T06:45:03;101528.55;;;25.84;90.77
47983;BME280;33751;50.816;-1.214;2024-03-23T06:47:31;101527.67;;;26.12;89.73
47983;BME280;33751;50.816;-1.214;2024-03-23T06:49:57;101529.38;;;26.57;88.62
47983;BME280;33751;50.816;-1.214;2024-03-23T06:52:24;101523.32;;;26.94;88.11
47983;BME280;33751;50.816;-1.214;2024-03-23T06:54:51;101521.77;;;26.89;87.50
47983;BME280;33751;50.816;-1.214;2024-03-23T06:57:17;101519.09;;;27.31;86.48
47983;BME280;33751;50.816;-1.214;2024-03-23T06:59:44;101519.35;;;27.50;85.18
47983;BME280;33751;50.816;-1.214;2024-03-23T07:02:11;101524.37;;;27.88;84.09
47983;BME280;33751;50.816;-1.214;2024-03-23T07:04:38;101518.05;;;28.04;82.98
47983;BME280;33751;50.816;-1.214;2024-03-23T07:07:04;101518.98;;;28.40;82.28
47983;BME280;33751;50.816;-1.214;2024-03-23T07:09:31;101519.44;;;29.06;81.15
47983;BME280;33751;50.816;-1.214;2024-03-23T07:11:59;101516.39;;;29.21;80.08
47983;BME280;33751;50.816;-1.214;2024-03-23T07:14:25;101521.63;;;29.33;79.63
47983;BME280;33751;50.816;-1.214;2024-03-23T07:16:53;101517.30;;;29.20;79.07
47983;BME280;33751;50.816;-1.214;2024-03-23T07:19:20;101513.72;;;30.05;78.28
47983;BME280;33751;50.816;-1.214;2024-03-23T07:21:46;101507.46;;;29.91;77.53
47983;BME280;33751;50.816;-1.214;2024-03-23T07:24:13;101512.18;;;30.33;76.32
47983;BME280;33751;50.816;-1.214;2024-03-23T07:26:40;101506.44;;;30.72;75.37
47983;BME280;33751;50.816;-1.214;2024-03-23T07:29:07;101505.28;;;30.70;74.97
47983;BME280;33751;50.816;-1.214;2024-03-23T07:31:34;101499.19;;;31.44;73.29
47983;BME280;33751;50.816;-1.214;2024-03-23T07:34:01;101499.32;;;31.35;72.19
47983;BME280;33751;50.816;-1.214;2024-03-23T07:36:28;101494.21;;;31.65;71.14
47983;BME280;33751;50.816;-1.214;2024-03-23T07:38:54;101490.89;;;31.09;72.01
47983;BME280;33751;50.816;-1.214;2024-03-23T07:41:22;101491.22;;;31.71;70.41
47983;BME280;33751;50.816;-1.214;2024-03-23T07:43:49;101488.29;;;31.84;69.50
47983;BME280;33751;50.816;-1.214;2024-03-23T07:46:16;101487.10;;;31.71;68.47
47983;BME280;33751;50.816;-1.214;2024-03-23T07:48:43;101488.05;;;31.14;70.08
47983;BME280;33751;50.816;-1.214;2024-03-23T07:51:13;101496.49;;;29.84;72.96
47983;BME280;33751;50.816;-1.214;2024-03-23T07:53:43;101479.14;;;30.31;71.69
47983;BME280;33751;50.816;-1.214;2024-03-23T07:56:10;101480.75;;;29.56;74.74
47983;BME280;33751;50.816;-1.214;2024-03-23T07:58:38;101473.13;;;29.16;76.95
47983;BME280;33751;50.816;-1.214;2024-03-23T08:01:05;101475.84;;;30.57;72.43
47983;BME280;33751;50.816;-1.214;2024-03-23T08:03:33;101475.73;;;31.95;69.26
47983;BME280;33751;50.816;-1.214;2024-03-23T08:06:07;101473.06;;;32.34;67.11
47983;BME280;33751;50.816;-1.214;2024-03-23T08:08:34;101471.05;;;32.43;65.88
47983;BME280;33751;50.816;-1.214;2024-03-23T08:11:02;101470.30;;;33.15;64.57
47983;BME280;33751;50.816;-1.214;2024-03-23T08:13:29;101473.48;;;32.96;64.14
47983;BME280;33751;50.816;-1.214;2024-03-23T08:15:57;101470.57;;;33.28;62.91
47983;BME280;33751;50.816;-1.214;2024-03-23T08:18:24;101462.92;;;33.45;62.38
47983;BME280;33751;50.816;-1.214;2024-03-23T08:20:58;101458.45;;;33.70;61.55
47983;BME280;33751;50.816;-1.214;2024-03-23T08:23:26;101461.04;;;33.92;61.03
47983;BME280;33751;50.816;-1.214;2024-03-23T08:25:57;101459.28;;;34.03;60.26
47983;BME280;33751;50.816;-1.214;2024-03-23T08:28:24;101462.27;;;34.13;59.59
47983;BME280;33751;50.816;-1.214;2024-03-23T08:30:51;101455.63;;;34.34;58.61
47983;BME280;33751;50.816;-1.214;2024-03-23T08:33:18;101462.65;;;34.06;59.68
47983;BME280;33751;50.816;-1.214;2024-03-23T08:35:53;101458.35;;;33.64;60.06
47983;BME280;33751;50.816;-1.214;2024-03-23T08:38:20;101457.92;;;34.82;58.49
47983;BME280;33751;50.816;-1.214;2024-03-23T08:40:47;101451.89;;;34.82;57.37
47983;BME280;33751;50.816;-1.214;2024-03-23T08:43:14;101451.72;;;34.68;57.09
47983;BME280;33751;50.816;-1.214;2024-03-23T08:45:41;101440.30;;;35.04;56.44
47983;BME280;33751;50.816;-1.214;2024-03-23T08:48:07;101437.15;;;35.58;55.03
47983;BME280;33751;50.816;-1.214;2024-03-23T08:50:34;101441.89;;;35.15;55.38
47983;BME280;33751;50.816;-1.214;2024-03-23T08:53:01;101433.48;;;36.09;53.80
47983;BME280;33751;50.816;-1.214;2024-03-23T08:55:27;101433.69;;;34.64;55.97
47983;BME280;33751;50.816;-1.214;2024-03-23T08:57:54;101418.14;;;35.98;53.59
47983;BME280;33751;50.816;-1.214;2024-03-23T09:00:21;101409.50;;;35.88;52.72
47983;BME280;33751;50.816;-1.214;2024-03-23T09:02:48;101409.02;;;36.52;52.47
47983;BME280;33751;50.816;-1.214;2024-03-23T09:05:15;101401.99;;;36.59;52.11
47983;BME280;33751;50.816;-1.214;2024-03-23T09:07:42;101401.88;;;36.74;51.75
47983;BME280;33751;50.816;-1.214;2024-03-23T09:10:09;101403.44;;;36.37;51.48
47983;BME280;33751;50.816;-1.214;2024-03-23T09:12:35;101398.77;;;36.72;51.16
47983;BME280;33751;50.816;-1.214;2024-03-23T09:15:02;101387.68;;;36.29;49.71
47983;BME280;33751;50.816;-1.214;2024-03-23T09:17:29;101391.68;;;35.30;49.73
47983;BME280;33751;50.816;-1.214;2024-03-23T09:19:55;101387.66;;;35.76;50.57
47983;BME280;33751;50.816;-1.214;2024-03-23T09:22:22;101395.28;;;35.56;52.03
47983;BME280;33751;50.816;-1.214;2024-03-23T09:24:49;101398.10;;;33.94;55.07
47983;BME280;33751;50.816;-1.214;2024-03-23T09:27:16;101397.04;;;32.80;57.81
47983;BME280;33751;50.816;-1.214;2024-03-23T09:29:42;101401.81;;;32.06;60.18
47983;BME280;33751;50.816;-1.214;2024-03-23T09:32:08;101393.06;;;31.68;62.04
47983;BME280;33751;50.816;-1.214;2024-03-23T09:34:36;101397.08;;;31.31;63.52
47983;BME280;33751;50.816;-1.214;2024-03-23T09:37:03;101393.78;;;31.16;66.77
47983;BME280;33751;50.816;-1.214;2024-03-23T09:39:30;101395.53;;;30.63;69.73
47983;BME280;33751;50.816;-1.214;2024-03-23T09:41:56;101399.99;;;30.24;70.67
47983;BME280;33751;50.816;-1.214;2024-03-23T09:44:24;101396.20;;;30.17;69.88
47983;BME280;33751;50.816;-1.214;2024-03-23T09:46:52;101400.83;;;30.10;69.40
47983;BME280;33751;50.816;-1.214;2024-03-23T09:49:19;101393.94;;;29.57;69.37
47983;BME280;33751;50.816;-1.214;2024-03-23T09:51:46;101395.99;;;29.23;70.47
47983;BME280;33751;50.816;-1.214;2024-03-23T09:54:13;101396.25;;;28.95;71.35
47983;BME280;33751;50.816;-1.214;2024-03-23T09:56:40;101389.09;;;29.57;71.95
47983;BME280;33751;50.816;-1.214;2024-03-23T09:59:06;101389.08;;;28.98;70.83
47983;BME280;33751;50.816;-1.214;2024-03-23T10:01:33;101384.57;;;29.22;70.56
47983;BME280;33751;50.816;-1.214;2024-03-23T10:04:00;101389.15;;;29.16;70.49
47983;BME280;33751;50.816;-1.214;2024-03-23T10:06:27;101384.63;;;28.79;70.99
47983;BME280;33751;50.816;-1.214;2024-03-23T10:08:53;101387.80;;;29.20;71.28
47983;BME280;33751;50.816;-1.214;2024-03-23T10:11:20;101387.79;;;28.51;70.74
47983;BME280;33751;50.816;-1.214;2024-03-23T10:13:47;101389.18;;;28.44;70.00
47983;BME280;33751;50.816;-1.214;2024-03-23T10:16:21;101380.08;;;28.27;69.52
47983;BME280;33751;50.816;-1.214;2024-03-23T10:18:48;101376.74;;;28.39;69.68
47983;BME280;33751;50.816;-1.214;2024-03-23T10:21:16;101384.63;;;27.97;69.10
47983;BME280;33751;50.816;-1.214;2024-03-23T10:23:44;101384.63;;;27.63;68.99
47983;BME280;33751;50.816;-1.214;2024-03-23T10:26:14;101385.91;;;27.95;69.25
47983;BME280;33751;50.816;-1.214;2024-03-23T10:28:58;101385.91;;;27.92;69.75
47983;BME280;33751;50.816;-1.214;2024-03-23T10:31:26;101372.38;;;27.61;69.68
47983;BME280;33751;50.816;-1.214;2024-03-23T10:33:53;101371.05;;;27.84;69.29
47983;BME280;33751;50.816;-1.214;2024-03-23T10:36:21;101367.45;;;27.81;69.52
47983;BME280;33751;50.816;-1.214;2024-03-23T10:38:50;101365.06;;;27.73;69.46
47983;BME280;33751;50.816;-1.214;2024-03-23T10:41:17;101361.68;;;27.78;70.22
47983;BME280;33751;50.816;-1.214;2024-03-23T10:43:47;101358.47;;;27.57;69.55
47983;BME280;33751;50.816;-1.214;2024-03-23T10:46:14;101343.64;;;27.51;69.70
47983;BME280;33751;50.816;-1.214;2024-03-23T10:48:41;101335.18;;;27.62;69.17
47983;BME280;33751;50.816;-1.214;2024-03-23T10:51:09;101333.71;;;27.95;68.62
47983;BME280;33751;50.816;-1.214;2024-03-23T10:53:37;101331.46;;;27.99;68.53
47983;BME280;33751;50.816;-1.214;2024-03-23T10:56:05;101333.17;;;27.54;69.31
47983;BME280;33751;50.816;-1.214;2024-03-23T10:58:37;101326.31;;;27.78;68.82
47983;BME280;33751;50.816;-1.214;2024-03-23T11:01:05;101322.12;;;27.10;69.00
47983;BME280;33751;50.816;-1.214;2024-03-23T11:03:33;101320.53;;;27.34;69.55
47983;BME280;33751;50.816;-1.214;2024-03-23T11:06:00;101318.30;;;27.10;69.15
47983;BME280;33751;50.816;-1.214;2024-03-23T11:08:31;101321.81;;;27.45;68.57
47983;BME280;33751;50.816;-1.214;2024-03-23T11:11:30;101314.94;;;27.55;68.37
47983;BME280;33751;50.816;-1.214;2024-03-23T11:13:59;101311.05;;;27.01;68.26
47983;BME280;33751;50.816;-1.214;2024-03-23T11:16:27;101308.19;;;27.24;68.42
47983;BME280;33751;50.816;-1.214;2024-03-23T11:19:34;101310.49;;;27.11;67.71
47983;BME280;33751;50.816;-1.214;2024-03-23T11:22:01;101306.28;;;27.22;68.15
47983;BME280;33751;50.816;-1.214;2024-03-23T11:24:29;101301.12;;;26.76;68.08
47983;BME280;33751;50.816;-1.214;2024-03-23T11:26:55;101295.13;;;26.62;68.11
47983;BME280;33751;50.816;-1.214;2024-03-23T11:29:22;101281.93;;;26.58;68.38
47983;BME280;33751;50.816;-1.214;2024-03-23T11:31:49;101278.75;;;26.53;69.30
47983;BME280;33751;50.816;-1.214;2024-03-23T11:34:16;101277.60;;;26.58;69.33
47983;BME280;33751;50.816;-1.214;2024-03-23T11:36:43;101272.50;;;26.92;68.50
47983;BME280;33751;50.816;-1.214;2024-03-23T11:39:12;101269.47;;;26.75;69.28
47983;BME280;33751;50.816;-1.214;2024-03-23T11:41:48;101262.64;;;26.68;69.07
47983;BME280;33751;50.816;-1.214;2024-03-23T11:44:17;101264.22;;;26.03;69.84
47983;BME280;33751;50.816;-1.214;2024-03-23T11:46:43;101268.40;;;26.36;70.22
47983;BME280;33751;50.816;-1.214;2024-03-23T11:49:28;101275.14;;;26.07;71.02
47983;BME280;33751;50.816;-1.214;2024-03-23T11:51:56;101274.67;;;25.90;71.83
47983;BME280;33751;50.816;-1.214;2024-03-23T11:54:24;101270.07;;;25.97;71.93
47983;BME280;33751;50.816;-1.214;2024-03-23T11:56:56;101281.08;;;25.99;72.13
47983;BME280;33751;50.816;-1.214;2024-03-23T11:59:32;101271.55;;;26.05;73.77
47983;BME280;33751;50.816;-1.214;2024-03-23T12:01:59;101277.64;;;26.13;74.99
47983;BME280;33751;50.816;-1.214;2024-03-23T12:04:27;101270.67;;;26.26;77.21
47983;BME280;33751;50.816;-1.214;2024-03-23T12:07:11;101264.10;;;26.67;77.78
47983;BME280;33751;50.816;-1.214;2024-03-23T12:09:39;101262.55;;;26.43;79.49
47983;BME280;33751;50.816;-1.214;2024-03-23T12:12:10;101253.72;;;26.28;81.35
47983;BME280;33751;50.816;-1.214;2024-03-23T12:14:37;101250.12;;;26.26;82.92
47983;BME280;33751;50.816;-1.214;2024-03-23T12:17:09;101254.87;;;26.34;84.14
47983;BME280;33751;50.816;-1.214;2024-03-23T12:19:37;101257.37;;;26.11;84.95
47983;BME280;33751;50.816;-1.214;2024-03-23T12:22:05;101252.59;;;26.17;85.39
47983;BME280;33751;50.816;-1.214;2024-03-23T12:24:33;101244.46;;;25.91;85.45
47983;BME280;33751;50.816;-1.214;2024-03-23T12:27:01;101242.28;;;26.28;85.82
47983;BME280;33751;50.816;-1.214;2024-03-23T12:29:29;101243.34;;;25.88;85.76
47983;BME280;33751;50.816;-1.214;2024-03-23T12:31:56;101230.95;;;25.76;86.12
47983;BME280;33751;50.816;-1.214;2024-03-23T12:34:23;101237.95;;;26.36;85.56
47983;BME280;33751;50.816;-1.214;2024-03-23T12:36:50;101239.35;;;26.12;84.71
47983;BME280;33751;50.816;-1.214;2024-03-23T12:39:16;101235.32;;;26.12;84.46
47983;BME280;33751;50.816;-1.214;2024-03-23T12:41:43;101235.07;;;26.16;83.93
47983;BME280;33751;50.816;-1.214;2024-03-23T12:44:09;101228.31;;;26.03;83.95
47983;BME280;33751;50.816;-1.214;2024-03-23T12:46:37;101221.64;;;25.71;83.85
47983;BME280;33751;50.816;-1.214;2024-03-23T12:49:04;101218.59;;;26.03;83.50
47983;BME280;33751;50.816;-1.214;2024-03-23T12:51:31;101213.97;;;26.25;83.32
47983;BME280;33751;50.816;-1.214;2024-03-23T12:53:59;101204.47;;;26.57;82.89
47983;BME280;33751;50.816;-1.214;2024-03-23T12:56:26;101199.58;;;26.52;82.75
47983;BME280;33751;50.816;-1.214;2024-03-23T12:58:53;101201.30;;;26.08;82.99
47983;BME280;33751;50.816;-1.214;2024-03-23T13:01:20;101206.00;;;26.16;82.57
47983;BME280;33751;50.816;-1.214;2024-03-23T13:03:46;101213.86;;;26.37;81.82
47983;BME280;33751;50.816;-1.214;2024-03-23T13:06:13;101226.52;;;26.28;81.47
47983;BME280;33751;50.816;-1.214;2024-03-23T13:08:40;101220.93;;;26.09;81.23
47983;BME280;33751;50.816;-1.214;2024-03-23T13:11:07;101225.98;;;25.74;81.54
47983;BME280;33751;50.816;-1.214;2024-03-23T13:13:34;101212.82;;;25.80;81.26
47983;BME280;33751;50.816;-1.214;2024-03-23T13:16:01;101220.02;;;25.94;80.43
47983;BME280;33751;50.816;-1.214;2024-03-23T13:18:28;101214.83;;;25.78;80.35
47983;BME280;33751;50.816;-1.214;2024-03-23T13:20:55;101210.59;;;25.43;80.33
47983;BME280;33751;50.816;-1.214;2024-03-23T13:23:22;101204.27;;;25.91;79.31
47983;BME280;33751;50.816;-1.214;2024-03-23T13:25:50;101190.44;;;25.91;79.27
47983;BME280;33751;50.816;-1.214;2024-03-23T13:28:17;101180.09;;;25.29;78.94
47983;BME280;33751;50.816;-1.214;2024-03-23T13:30:50;101170.04;;;25.93;78.44